createdAt,value
2019-06-10T00:00:37.645Z,17.66
2019-06-10T00:01:37.707Z,17.66
2019-06-10T00:02:37.620Z,17.73
2019-06-10T00:03:37.608Z,17.71
2019-06-10T00:04:37.585Z,17.70
2019-06-10T00:05:37.591Z,17.68
2019-06-10T00:06:37.573Z,17.76
2019-06-10T00:07:37.558Z,17.70
2019-06-10T00:08:37.544Z,17.70
2019-06-10T00:09:37.539Z,17.73
2019-06-10T00:10:37.551Z,17.73
2019-06-10T00:11:37.564Z,17.70
2019-06-10T00:12:37.514Z,17.65
2019-06-10T00:13:37.488Z,17.58
2019-06-10T00:14:37.484Z,17.60
2019-06-10T00:15:37.467Z,17.66
2019-06-10T00:16:37.471Z,17.66
2019-06-10T00:17:50.661Z,17.55
2019-06-10T00:18:42.962Z,17.60
2019-06-10T00:19:40.739Z,17.62
2019-06-10T00:20:37.414Z,17.55
2019-06-10T00:21:37.430Z,17.66
2019-06-10T00:22:37.388Z,17.53
2019-06-10T00:23:37.379Z,17.57
2019-06-10T00:24:37.363Z,17.55
2019-06-10T00:25:37.353Z,17.54
2019-06-10T00:26:37.353Z,17.53
2019-06-10T00:27:37.334Z,17.55
2019-06-10T00:28:37.342Z,17.49
2019-06-10T00:29:37.321Z,17.53
2019-06-10T00:30:37.309Z,17.54
2019-06-10T00:31:37.332Z,17.51
2019-06-10T00:32:37.275Z,17.49
2019-06-10T00:33:37.267Z,17.49
2019-06-10T00:34:37.265Z,17.55
2019-06-10T00:35:37.241Z,17.49
2019-06-10T00:36:37.234Z,17.57
2019-06-10T00:37:37.237Z,17.53
2019-06-10T00:38:37.226Z,17.60
2019-06-10T00:39:37.198Z,17.46
2019-06-10T00:40:37.198Z,17.53
2019-06-10T00:41:37.229Z,17.51
2019-06-10T00:42:37.199Z,17.53
2019-06-10T00:43:37.153Z,17.53
2019-06-10T00:44:37.145Z,17.53
2019-06-10T00:45:37.138Z,17.46
2019-06-10T00:46:37.128Z,17.43
2019-06-10T00:47:37.109Z,17.53
2019-06-10T00:48:37.110Z,17.49
2019-06-10T00:49:37.087Z,17.43
2019-06-10T00:50:37.079Z,17.47
2019-06-10T00:51:37.118Z,17.43
2019-06-10T00:52:37.062Z,17.42
2019-06-10T00:53:37.069Z,17.47
2019-06-10T00:54:37.038Z,17.45
2019-06-10T00:55:37.024Z,17.38
2019-06-10T00:56:37.018Z,17.38
2019-06-10T00:57:36.999Z,17.39
2019-06-10T00:58:36.989Z,17.43
2019-06-10T00:59:36.998Z,17.38
2019-06-10T01:00:36.964Z,17.39
2019-06-10T01:01:36.952Z,17.38
2019-06-10T01:02:36.951Z,17.39
2019-06-10T01:03:36.951Z,17.35
2019-06-10T01:04:36.929Z,17.36
2019-06-10T01:05:36.925Z,17.45
2019-06-10T01:06:36.898Z,17.40
2019-06-10T01:07:36.895Z,17.38
2019-06-10T01:08:36.906Z,17.36
2019-06-10T01:09:36.870Z,17.38
2019-06-10T01:10:36.893Z,17.27
2019-06-10T01:11:36.844Z,17.36
2019-06-10T01:12:36.832Z,17.42
2019-06-10T01:13:36.818Z,17.35
2019-06-10T01:14:36.828Z,17.38
2019-06-10T01:15:36.796Z,17.35
2019-06-10T01:16:36.789Z,17.30
2019-06-10T01:17:36.779Z,17.35
2019-06-10T01:18:38.603Z,17.25
2019-06-10T01:19:36.802Z,17.38
2019-06-10T01:20:36.742Z,17.35
2019-06-10T01:21:36.734Z,17.39
2019-06-10T01:22:36.719Z,17.27
2019-06-10T01:23:36.725Z,17.27
2019-06-10T01:24:36.702Z,17.38
2019-06-10T01:25:36.696Z,17.33
2019-06-10T01:26:36.687Z,17.24
2019-06-10T01:27:36.674Z,17.28
2019-06-10T01:28:36.654Z,17.27
2019-06-10T01:29:36.654Z,17.27
2019-06-10T01:30:36.632Z,17.22
2019-06-10T01:31:36.618Z,17.25
2019-06-10T01:32:36.611Z,17.22
2019-06-10T01:33:36.596Z,17.28
2019-06-10T01:34:36.608Z,17.22
2019-06-10T01:35:36.575Z,17.21
2019-06-10T01:36:36.585Z,17.25
2019-06-10T01:37:36.566Z,17.18
2019-06-10T01:38:36.545Z,17.21
2019-06-10T01:39:36.536Z,17.18
2019-06-10T01:40:36.556Z,17.18
2019-06-10T01:41:36.512Z,17.14
2019-06-10T01:42:36.525Z,17.20
2019-06-10T01:43:36.489Z,17.20
2019-06-10T01:44:36.472Z,17.15
2019-06-10T01:45:36.464Z,17.21
2019-06-10T01:46:36.467Z,17.15
2019-06-10T01:47:36.445Z,17.21
2019-06-10T01:48:44.209Z,17.18
2019-06-10T01:49:37.418Z,17.15
2019-06-10T01:50:36.428Z,17.15
2019-06-10T01:51:36.393Z,17.17
2019-06-10T01:52:36.383Z,17.20
2019-06-10T01:53:36.394Z,17.17
2019-06-10T01:54:36.366Z,17.20
2019-06-10T01:55:36.354Z,17.20
2019-06-10T01:56:36.356Z,17.12
2019-06-10T01:57:36.333Z,17.21
2019-06-10T01:58:36.319Z,17.12
2019-06-10T01:59:36.311Z,17.12
2019-06-10T02:00:36.298Z,17.12
2019-06-10T02:01:36.301Z,17.12
2019-06-10T02:02:36.276Z,17.10
2019-06-10T02:03:36.272Z,16.99
2019-06-10T02:04:36.249Z,17.10
2019-06-10T02:05:36.254Z,17.15
2019-06-10T02:06:36.240Z,17.07
2019-06-10T02:07:36.239Z,17.06
2019-06-10T02:08:36.204Z,17.12
2019-06-10T02:09:36.202Z,17.14
2019-06-10T02:10:36.182Z,17.14
2019-06-10T02:11:36.194Z,16.98
2019-06-10T02:12:36.179Z,17.09
2019-06-10T02:13:36.154Z,17.14
2019-06-10T02:14:36.139Z,17.02
2019-06-10T02:15:36.133Z,17.05
2019-06-10T02:16:36.120Z,17.05
2019-06-10T02:17:36.122Z,17.05
2019-06-10T02:18:36.108Z,17.06
2019-06-10T02:19:36.095Z,17.05
2019-06-10T02:20:36.072Z,17.02
2019-06-10T02:21:36.065Z,17.00
2019-06-10T02:22:36.072Z,17.05
2019-06-10T02:23:36.047Z,17.10
2019-06-10T02:24:36.024Z,17.02
2019-06-10T02:25:36.016Z,17.06
2019-06-10T02:26:36.007Z,16.91
2019-06-10T02:27:36.000Z,17.03
2019-06-10T02:28:36.020Z,17.00
2019-06-10T02:29:35.976Z,17.05
2019-06-10T02:30:46.173Z,17.02
2019-06-10T02:31:37.845Z,17.00
2019-06-10T02:32:37.574Z,17.03
2019-06-10T02:33:36.899Z,16.98
2019-06-10T02:34:43.285Z,16.99
2019-06-10T02:35:43.928Z,16.92
2019-06-10T02:36:37.232Z,17.03
2019-06-10T02:37:38.110Z,16.96
2019-06-10T02:38:39.553Z,16.99
2019-06-10T02:39:38.881Z,16.87
2019-06-10T02:40:36.706Z,16.99
2019-06-10T02:41:36.522Z,17.00
2019-06-10T02:42:36.323Z,16.95
2019-06-10T02:43:37.542Z,16.90
2019-06-10T02:44:37.629Z,16.90
2019-06-10T02:45:37.476Z,16.92
2019-06-10T02:46:36.552Z,16.98
2019-06-10T02:47:37.934Z,16.85
2019-06-10T02:48:36.440Z,16.98
2019-06-10T02:49:52.777Z,16.90
2019-06-10T02:50:36.750Z,16.87
2019-06-10T02:51:36.014Z,16.90
2019-06-10T02:52:38.420Z,16.91
2019-06-10T02:53:36.824Z,16.92
2019-06-10T02:54:36.177Z,16.90
2019-06-10T02:55:35.735Z,16.98
2019-06-10T02:56:36.756Z,16.92
2019-06-10T02:57:39.976Z,16.91
2019-06-10T02:58:39.011Z,17.02
2019-06-10T02:59:36.468Z,16.85
2019-06-10T03:00:43.213Z,16.87
2019-06-10T03:01:38.117Z,16.82
2019-06-10T03:02:36.569Z,16.90
2019-06-10T03:03:43.847Z,16.91
2019-06-10T03:04:37.612Z,16.88
2019-06-10T03:05:41.039Z,16.95
2019-06-10T03:06:40.154Z,16.95
2019-06-10T03:07:35.963Z,16.90
2019-06-10T03:08:36.466Z,16.88
2019-06-10T03:09:35.952Z,16.91
2019-06-10T03:10:37.142Z,16.85
2019-06-10T03:11:37.068Z,16.82
2019-06-10T03:12:35.487Z,16.90
2019-06-10T03:13:35.475Z,16.87
2019-06-10T03:14:35.463Z,16.85
2019-06-10T03:15:35.452Z,16.81
2019-06-10T03:16:35.456Z,16.81
2019-06-10T03:17:35.438Z,16.78
2019-06-10T03:18:35.421Z,16.78
2019-06-10T03:19:46.981Z,16.80
2019-06-10T03:20:36.396Z,16.80
2019-06-10T03:21:35.401Z,16.85
2019-06-10T03:22:35.373Z,16.85
2019-06-10T03:23:35.363Z,16.82
2019-06-10T03:24:35.361Z,16.81
2019-06-10T03:25:35.341Z,16.81
2019-06-10T03:26:35.338Z,16.78
2019-06-10T03:27:35.330Z,16.77
2019-06-10T03:28:35.318Z,16.84
2019-06-10T03:29:35.306Z,16.78
2019-06-10T03:30:47.250Z,16.69
2019-06-10T03:31:41.804Z,16.77
2019-06-10T03:32:41.190Z,16.80
2019-06-10T03:33:41.646Z,16.75
2019-06-10T03:34:42.003Z,16.67
2019-06-10T03:35:36.226Z,16.69
2019-06-10T03:36:35.214Z,16.78
2019-06-10T03:37:35.246Z,16.73
2019-06-10T03:38:37.109Z,16.78
2019-06-10T03:39:35.182Z,16.75
2019-06-10T03:40:35.168Z,16.77
2019-06-10T03:41:35.159Z,16.72
2019-06-10T03:42:35.146Z,16.77
2019-06-10T03:43:35.137Z,16.77
2019-06-10T03:44:35.139Z,16.70
2019-06-10T03:45:35.114Z,16.75
2019-06-10T03:46:35.104Z,16.82
2019-06-10T03:47:35.111Z,16.67
2019-06-10T03:48:35.080Z,16.73
2019-06-10T03:49:49.164Z,16.77
2019-06-10T03:50:36.060Z,16.70
2019-06-10T03:51:35.049Z,16.72
2019-06-10T03:52:35.037Z,16.66
2019-06-10T03:53:35.053Z,16.77
2019-06-10T03:54:35.016Z,16.73
2019-06-10T03:55:35.001Z,16.77
2019-06-10T03:56:34.991Z,16.73
2019-06-10T03:57:34.987Z,16.77
2019-06-10T03:58:34.986Z,16.75
2019-06-10T03:59:34.959Z,16.73
2019-06-10T04:00:37.075Z,16.77
2019-06-10T04:01:34.937Z,16.75
2019-06-10T04:02:34.922Z,16.81
2019-06-10T04:03:34.946Z,16.77
2019-06-10T04:04:34.901Z,16.77
2019-06-10T04:05:34.897Z,16.77
2019-06-10T04:06:34.896Z,16.80
2019-06-10T04:07:34.868Z,16.77
2019-06-10T04:08:34.857Z,16.77
2019-06-10T04:09:34.857Z,16.69
2019-06-10T04:10:34.835Z,16.67
2019-06-10T04:11:35.404Z,16.77
2019-06-10T04:12:34.812Z,16.77
2019-06-10T04:13:34.798Z,16.78
2019-06-10T04:14:34.806Z,16.66
2019-06-10T04:15:34.776Z,16.75
2019-06-10T04:16:34.777Z,16.78
2019-06-10T04:17:34.756Z,16.69
2019-06-10T04:18:34.745Z,16.70
2019-06-10T04:19:34.756Z,16.75
2019-06-10T04:20:34.739Z,16.73
2019-06-10T04:21:34.735Z,16.69
2019-06-10T04:22:34.701Z,16.78
2019-06-10T04:23:34.692Z,16.81
2019-06-10T04:24:34.700Z,16.82
2019-06-10T04:25:34.665Z,16.84
2019-06-10T04:26:34.656Z,16.84
2019-06-10T04:27:34.647Z,16.78
2019-06-10T04:28:34.636Z,16.78
2019-06-10T04:29:34.640Z,16.80
2019-06-10T04:30:34.611Z,16.80
2019-06-10T04:31:34.601Z,16.87
2019-06-10T04:32:34.588Z,16.90
2019-06-10T04:33:34.575Z,16.82
2019-06-10T04:34:34.605Z,16.87
2019-06-10T04:35:34.554Z,16.85
2019-06-10T04:36:34.552Z,16.88
2019-06-10T04:37:34.535Z,16.91
2019-06-10T04:38:34.524Z,16.88
2019-06-10T04:39:34.532Z,16.90
2019-06-10T04:40:34.536Z,16.91
2019-06-10T04:41:34.488Z,16.99
2019-06-10T04:42:34.479Z,16.92
2019-06-10T04:43:34.466Z,16.87
2019-06-10T04:44:34.456Z,16.88
2019-06-10T04:45:34.452Z,16.92
2019-06-10T04:46:34.447Z,16.90
2019-06-10T04:47:34.422Z,16.98
2019-06-10T04:48:34.415Z,16.91
2019-06-10T04:49:34.405Z,16.95
2019-06-10T04:50:42.284Z,16.88
2019-06-10T04:51:35.394Z,17.00
2019-06-10T04:52:34.366Z,16.88
2019-06-10T04:53:34.354Z,16.85
2019-06-10T04:54:34.345Z,16.87
2019-06-10T04:55:34.347Z,17.03
2019-06-10T04:56:34.338Z,17.06
2019-06-10T04:57:34.327Z,17.05
2019-06-10T04:58:34.304Z,17.06
2019-06-10T04:59:34.288Z,17.07
2019-06-10T05:00:34.290Z,17.02
2019-06-10T05:01:34.269Z,17.14
2019-06-10T05:02:34.253Z,17.21
2019-06-10T05:03:34.256Z,17.18
2019-06-10T05:04:34.235Z,17.18
2019-06-10T05:05:34.223Z,17.17
2019-06-10T05:06:34.211Z,17.22
2019-06-10T05:07:37.148Z,17.21
2019-06-10T05:08:34.210Z,17.24
2019-06-10T05:09:34.185Z,17.30
2019-06-10T05:10:34.173Z,17.28
2019-06-10T05:11:34.160Z,17.35
2019-06-10T05:12:34.160Z,17.27
2019-06-10T05:13:34.138Z,17.33
2019-06-10T05:14:34.128Z,17.39
2019-06-10T05:15:34.885Z,17.40
2019-06-10T05:16:35.818Z,17.39
2019-06-10T05:17:34.496Z,17.40
2019-06-10T05:18:34.113Z,17.40
2019-06-10T05:19:34.082Z,17.43
2019-06-10T05:20:51.203Z,17.51
2019-06-10T05:21:35.049Z,17.49
2019-06-10T05:22:34.047Z,17.51
2019-06-10T05:23:34.025Z,17.55
2019-06-10T05:24:34.491Z,17.62
2019-06-10T05:25:34.002Z,17.65
2019-06-10T05:26:33.992Z,17.65
2019-06-10T05:27:33.995Z,17.58
2019-06-10T05:28:34.411Z,17.74
2019-06-10T05:29:34.268Z,17.68
2019-06-10T05:30:34.212Z,17.66
2019-06-10T05:31:35.034Z,17.80
2019-06-10T05:32:33.925Z,17.74
2019-06-10T05:33:33.914Z,17.79
2019-06-10T05:34:34.790Z,17.79
2019-06-10T05:35:34.105Z,17.80
2019-06-10T05:36:34.641Z,17.84
2019-06-10T05:37:34.089Z,17.91
2019-06-10T05:38:35.282Z,17.96
2019-06-10T05:39:35.082Z,18.02
2019-06-10T05:40:34.255Z,18.01
2019-06-10T05:41:35.044Z,18.05
2019-06-10T05:42:35.940Z,18.13
2019-06-10T05:43:34.641Z,18.09
2019-06-10T05:44:34.635Z,18.13
2019-06-10T05:45:35.071Z,18.17
2019-06-10T05:46:35.043Z,18.20
2019-06-10T05:47:36.002Z,18.29
2019-06-10T05:48:35.168Z,18.25
2019-06-10T05:49:36.080Z,18.31
2019-06-10T05:50:34.991Z,18.38
2019-06-10T05:51:35.297Z,18.36
2019-06-10T05:52:35.110Z,18.41
2019-06-10T05:53:35.428Z,18.44
2019-06-10T05:54:35.322Z,18.57
2019-06-10T05:55:35.058Z,18.50
2019-06-10T05:56:35.364Z,18.50
2019-06-10T05:57:35.478Z,18.56
2019-06-10T05:58:35.858Z,18.60
2019-06-10T05:59:35.488Z,18.64
2019-06-10T06:00:35.422Z,18.68
2019-06-10T06:01:38.041Z,18.78
2019-06-10T06:02:35.427Z,18.75
2019-06-10T06:03:36.778Z,18.69
2019-06-10T06:04:34.660Z,18.84
2019-06-10T06:05:36.105Z,18.82
2019-06-10T06:06:35.338Z,18.84
2019-06-10T06:07:35.256Z,18.87
2019-06-10T06:08:35.412Z,18.90
2019-06-10T06:09:35.234Z,18.94
2019-06-10T06:10:35.450Z,18.99
2019-06-10T06:11:35.269Z,19.05
2019-06-10T06:12:35.336Z,19.17
2019-06-10T06:13:35.893Z,19.15
2019-06-10T06:14:35.637Z,19.21
2019-06-10T06:15:35.805Z,19.17
2019-06-10T06:16:36.110Z,19.24
2019-06-10T06:17:35.355Z,19.30
2019-06-10T06:18:36.344Z,19.32
2019-06-10T06:19:36.922Z,19.28
2019-06-10T06:20:35.934Z,19.34
2019-06-10T06:21:40.324Z,19.49
2019-06-10T06:22:35.704Z,19.43
2019-06-10T06:23:35.184Z,19.57
2019-06-10T06:24:35.519Z,19.46
2019-06-10T06:25:40.970Z,19.60
2019-06-10T06:26:37.894Z,19.70
2019-06-10T06:27:35.472Z,19.70
2019-06-10T06:28:35.997Z,19.72
2019-06-10T06:29:33.912Z,19.75
2019-06-10T06:30:34.860Z,19.78
2019-06-10T06:31:34.921Z,19.79
2019-06-10T06:32:35.239Z,19.85
2019-06-10T06:33:37.678Z,19.94
2019-06-10T06:34:35.932Z,20.01
2019-06-10T06:35:36.733Z,20.10
2019-06-10T06:36:36.589Z,20.26
2019-06-10T06:37:36.436Z,20.22
2019-06-10T06:38:34.053Z,20.20
2019-06-10T06:39:34.738Z,20.27
2019-06-10T06:40:35.615Z,20.20
2019-06-10T06:41:34.536Z,20.27
2019-06-10T06:42:35.052Z,20.25
2019-06-10T06:43:40.005Z,20.22
2019-06-10T06:44:37.342Z,20.25
2019-06-10T06:45:35.859Z,20.27
2019-06-10T06:46:37.521Z,20.30
2019-06-10T06:47:35.628Z,20.38
2019-06-10T06:48:37.011Z,20.41
2019-06-10T06:49:35.489Z,20.37
2019-06-10T06:50:35.615Z,20.54
2019-06-10T06:51:43.487Z,20.46
2019-06-10T06:53:04.846Z,20.51
2019-06-10T06:53:44.140Z,20.58
2019-06-10T06:54:36.101Z,20.53
2019-06-10T06:55:33.729Z,20.64
2019-06-10T06:56:36.155Z,20.73
2019-06-10T06:57:34.184Z,20.75
2019-06-10T06:58:35.195Z,20.79
2019-06-10T06:59:34.277Z,20.81
2019-06-10T07:00:51.386Z,20.75
2019-06-10T07:01:37.317Z,20.76
2019-06-10T07:02:34.572Z,20.78
2019-06-10T07:03:35.280Z,20.78
2019-06-10T07:04:35.470Z,20.75
2019-06-10T07:05:35.534Z,20.83
2019-06-10T07:06:34.525Z,20.90
2019-06-10T07:07:34.557Z,20.85
2019-06-10T07:08:34.322Z,20.91
2019-06-10T07:09:34.620Z,20.91
2019-06-10T07:10:34.065Z,20.93
2019-06-10T07:11:33.937Z,20.94
2019-06-10T07:12:33.773Z,20.96
2019-06-10T07:13:35.517Z,20.85
2019-06-10T07:14:36.792Z,20.85
2019-06-10T07:15:35.441Z,20.96
2019-06-10T07:16:34.511Z,20.93
2019-06-10T07:17:34.536Z,20.90
2019-06-10T07:18:38.916Z,20.97
2019-06-10T07:19:35.108Z,21.09
2019-06-10T07:20:36.302Z,21.08
2019-06-10T07:21:36.183Z,21.18
2019-06-10T07:22:36.520Z,21.09
2019-06-10T07:23:36.211Z,21.19
2019-06-10T07:24:35.811Z,21.15
2019-06-10T07:25:35.681Z,21.15
2019-06-10T07:26:34.410Z,21.11
2019-06-10T07:27:35.804Z,21.15
2019-06-10T07:28:35.804Z,21.31
2019-06-10T07:29:34.275Z,21.49
2019-06-10T07:30:36.944Z,21.49
2019-06-10T07:31:36.157Z,21.70
2019-06-10T07:32:34.297Z,21.70
2019-06-10T07:33:34.582Z,21.90
2019-06-10T07:34:35.024Z,22.14
2019-06-10T07:35:33.064Z,22.21
2019-06-10T07:36:34.182Z,22.44
2019-06-10T07:37:34.581Z,22.63
2019-06-10T07:38:33.854Z,22.89
2019-06-10T07:39:34.985Z,23.01
2019-06-10T07:40:33.413Z,23.37
2019-06-10T07:41:34.041Z,23.50
2019-06-10T07:42:33.258Z,23.57
2019-06-10T07:43:35.791Z,23.69
2019-06-10T07:44:34.898Z,23.82
2019-06-10T07:45:33.798Z,23.84
2019-06-10T07:46:33.521Z,23.82
2019-06-10T07:47:33.826Z,23.84
2019-06-10T07:48:33.503Z,23.96
2019-06-10T07:49:33.868Z,24.08
2019-06-10T07:50:33.316Z,24.06
2019-06-10T07:51:33.023Z,24.30
2019-06-10T07:52:33.186Z,24.31
2019-06-10T07:53:34.337Z,24.11
2019-06-10T07:54:33.289Z,24.00
2019-06-10T07:55:33.222Z,23.97
2019-06-10T07:56:38.163Z,23.81
2019-06-10T07:57:34.761Z,23.75
2019-06-10T07:58:34.781Z,23.78
2019-06-10T07:59:33.773Z,23.92
2019-06-10T08:00:33.697Z,24.06
2019-06-10T08:01:33.320Z,24.18
2019-06-10T08:02:33.952Z,24.59
2019-06-10T08:03:33.384Z,24.61
2019-06-10T08:04:33.568Z,24.80
2019-06-10T08:05:33.964Z,24.90
2019-06-10T08:06:33.511Z,24.93
2019-06-10T08:07:33.418Z,25.04
2019-06-10T08:08:32.857Z,24.97
2019-06-10T08:09:33.631Z,24.94
2019-06-10T08:10:32.795Z,25.01
2019-06-10T08:11:33.247Z,24.98
2019-06-10T08:12:32.605Z,25.22
2019-06-10T08:13:32.547Z,25.39
2019-06-10T08:14:32.974Z,25.51
2019-06-10T08:15:32.618Z,25.64
2019-06-10T08:16:32.726Z,25.60
2019-06-10T08:17:32.807Z,25.63
2019-06-10T08:18:39.462Z,25.64
2019-06-10T08:19:37.663Z,25.54
2019-06-10T08:20:33.121Z,25.48
2019-06-10T08:21:32.375Z,25.56
2019-06-10T08:22:37.254Z,25.42
2019-06-10T08:23:33.104Z,25.45
2019-06-10T08:24:32.957Z,25.59
2019-06-10T08:25:32.791Z,25.79
2019-06-10T08:26:32.513Z,25.97
2019-06-10T08:27:33.598Z,25.97
2019-06-10T08:28:33.222Z,26.13
2019-06-10T08:29:33.063Z,26.23
2019-06-10T08:30:32.936Z,26.53
2019-06-10T08:31:33.281Z,26.54
2019-06-10T08:32:33.467Z,26.73
2019-06-10T08:33:33.082Z,26.91
2019-06-10T08:34:32.921Z,26.96
2019-06-10T08:35:39.308Z,27.11
2019-06-10T08:36:33.484Z,27.03
2019-06-10T08:37:33.186Z,27.13
2019-06-10T08:38:32.910Z,27.01
2019-06-10T08:39:33.488Z,27.08
2019-06-10T08:40:32.586Z,26.71
2019-06-10T08:41:32.304Z,26.44
2019-06-10T08:42:32.382Z,26.39
2019-06-10T08:43:33.189Z,26.35
2019-06-10T08:44:32.788Z,26.31
2019-06-10T08:45:33.309Z,26.24
2019-06-10T08:46:32.948Z,26.24
2019-06-10T08:47:32.734Z,26.16
2019-06-10T08:48:32.955Z,26.16
2019-06-10T08:49:32.726Z,26.28
2019-06-10T08:50:33.677Z,26.38
2019-06-10T08:51:32.460Z,26.46
2019-06-10T08:52:49.386Z,26.42
2019-06-10T08:53:33.211Z,26.46
2019-06-10T08:54:32.388Z,26.29
2019-06-10T08:55:33.435Z,26.41
2019-06-10T08:56:32.747Z,26.27
2019-06-10T08:57:33.525Z,26.20
2019-06-10T08:58:33.096Z,26.12
2019-06-10T08:59:32.612Z,26.32
2019-06-10T09:00:33.197Z,26.49
2019-06-10T09:01:33.468Z,26.41
2019-06-10T09:02:33.440Z,26.34
2019-06-10T09:03:32.450Z,26.34
2019-06-10T09:04:33.112Z,26.49
2019-06-10T09:05:32.386Z,26.60
2019-06-10T09:06:32.903Z,26.65
2019-06-10T09:07:32.333Z,26.59
2019-06-10T09:08:32.660Z,26.54
2019-06-10T09:09:33.523Z,26.65
2019-06-10T09:10:33.875Z,26.66
2019-06-10T09:11:32.881Z,26.57
2019-06-10T09:12:36.403Z,26.53
2019-06-10T09:13:33.692Z,26.36
2019-06-10T09:14:32.602Z,26.44
2019-06-10T09:15:32.477Z,26.41
2019-06-10T09:16:32.419Z,26.36
2019-06-10T09:17:33.808Z,26.00
2019-06-10T09:18:33.712Z,25.82
2019-06-10T09:19:33.174Z,25.82
2019-06-10T09:20:33.177Z,25.91
2019-06-10T09:21:33.028Z,26.04
2019-06-10T09:22:32.703Z,26.20
2019-06-10T09:23:33.142Z,26.35
2019-06-10T09:24:32.827Z,26.44
2019-06-10T09:25:33.342Z,26.46
2019-06-10T09:26:33.710Z,26.35
2019-06-10T09:27:32.766Z,26.29
2019-06-10T09:28:32.871Z,26.34
2019-06-10T09:29:32.865Z,26.49
2019-06-10T09:30:33.421Z,26.59
2019-06-10T09:31:33.173Z,26.49
2019-06-10T09:32:32.474Z,26.38
2019-06-10T09:33:33.108Z,26.38
2019-06-10T09:34:33.107Z,26.44
2019-06-10T09:35:32.326Z,26.50
2019-06-10T09:36:32.517Z,26.47
2019-06-10T09:37:32.081Z,26.46
2019-06-10T09:38:33.390Z,26.46
2019-06-10T09:39:32.904Z,26.46
2019-06-10T09:40:33.376Z,26.34
2019-06-10T09:41:40.187Z,26.29
2019-06-10T09:42:33.339Z,26.32
2019-06-10T09:43:33.324Z,26.39
2019-06-10T09:44:33.380Z,26.50
2019-06-10T09:45:33.279Z,26.35
2019-06-10T09:46:33.082Z,26.29
2019-06-10T09:47:34.024Z,26.11
2019-06-10T09:48:33.554Z,26.31
2019-06-10T09:49:33.077Z,26.53
2019-06-10T09:50:33.314Z,26.53
2019-06-10T09:51:32.402Z,26.64
2019-06-10T09:52:32.862Z,26.54
2019-06-10T09:53:41.229Z,26.65
2019-06-10T09:54:33.526Z,26.90
2019-06-10T09:55:32.861Z,26.96
2019-06-10T09:56:33.098Z,26.96
2019-06-10T09:57:32.172Z,26.94
2019-06-10T09:58:32.925Z,27.06
2019-06-10T09:59:32.261Z,27.16
2019-06-10T10:00:33.195Z,27.39
2019-06-10T10:01:32.693Z,27.55
2019-06-10T10:02:33.176Z,27.81
2019-06-10T10:03:32.904Z,27.98
2019-06-10T10:04:32.735Z,28.06
2019-06-10T10:05:33.686Z,28.17
2019-06-10T10:06:32.741Z,28.28
2019-06-10T10:07:32.414Z,28.28
2019-06-10T10:08:32.701Z,28.17
2019-06-10T10:09:34.431Z,28.05
2019-06-10T10:10:32.744Z,27.78
2019-06-10T10:11:32.106Z,27.52
2019-06-10T10:12:32.706Z,27.40
2019-06-10T10:13:34.898Z,27.42
2019-06-10T10:14:33.372Z,27.43
2019-06-10T10:15:34.411Z,27.35
2019-06-10T10:16:33.923Z,27.46
2019-06-10T10:17:33.398Z,27.72
2019-06-10T10:18:32.964Z,27.84
2019-06-10T10:19:30.998Z,28.01
2019-06-10T10:20:33.972Z,28.17
2019-06-10T10:21:30.957Z,27.90
2019-06-10T10:22:33.344Z,27.55
2019-06-10T10:23:49.096Z,27.55
2019-06-10T10:24:34.068Z,27.63
2019-06-10T10:25:32.814Z,27.68
2019-06-10T10:26:31.360Z,27.84
2019-06-10T10:27:32.340Z,27.95
2019-06-10T10:28:33.208Z,27.91
2019-06-10T10:29:32.843Z,28.06
2019-06-10T10:30:33.214Z,28.28
2019-06-10T10:31:32.403Z,28.45
2019-06-10T10:32:33.269Z,28.43
2019-06-10T10:33:33.279Z,28.40
2019-06-10T10:34:33.186Z,28.42
2019-06-10T10:35:32.623Z,28.39
2019-06-10T10:36:33.388Z,28.28
2019-06-10T10:37:32.275Z,28.25
2019-06-10T10:38:33.251Z,28.14
2019-06-10T10:39:32.728Z,28.06
2019-06-10T10:40:32.593Z,27.95
2019-06-10T10:41:32.317Z,27.96
2019-06-10T10:42:42.763Z,28.14
2019-06-10T10:43:34.048Z,28.25
2019-06-10T10:44:30.746Z,28.52
2019-06-10T10:45:31.201Z,28.73
2019-06-10T10:46:32.630Z,28.97
2019-06-10T10:47:33.505Z,29.15
2019-06-10T10:48:33.237Z,29.14
2019-06-10T10:49:30.741Z,29.14
2019-06-10T10:50:30.697Z,29.15
2019-06-10T10:51:32.627Z,29.07
2019-06-10T10:52:32.872Z,29.15
2019-06-10T10:53:32.826Z,29.35
2019-06-10T10:54:36.066Z,29.37
2019-06-10T10:55:32.931Z,29.67
2019-06-10T10:56:30.656Z,29.81
2019-06-10T10:57:32.951Z,29.89
2019-06-10T10:58:33.029Z,30.22
2019-06-10T10:59:33.179Z,30.46
2019-06-10T11:00:37.191Z,30.51
2019-06-10T11:01:33.394Z,30.82
2019-06-10T11:02:32.189Z,30.98
2019-06-10T11:03:33.340Z,30.91
2019-06-10T11:04:32.795Z,31.19
2019-06-10T11:05:33.107Z,31.37
2019-06-10T11:06:32.349Z,31.37
2019-06-10T11:07:33.360Z,31.23
2019-06-10T11:08:33.318Z,31.37
2019-06-10T11:09:32.875Z,31.53
2019-06-10T11:10:33.014Z,31.59
2019-06-10T11:11:33.125Z,31.71
2019-06-10T11:12:33.085Z,31.64
2019-06-10T11:13:32.683Z,31.57
2019-06-10T11:14:30.496Z,31.59
2019-06-10T11:15:33.796Z,31.65
2019-06-10T11:16:33.090Z,31.67
2019-06-10T11:17:30.465Z,31.62
2019-06-10T11:18:30.470Z,31.37
2019-06-10T11:19:32.853Z,31.32
2019-06-10T11:20:33.512Z,31.34
2019-06-10T11:21:32.625Z,31.45
2019-06-10T11:22:32.732Z,31.47
2019-06-10T11:23:33.373Z,31.32
2019-06-10T11:24:39.976Z,31.28
2019-06-10T11:25:33.247Z,31.25
2019-06-10T11:26:32.862Z,31.23
2019-06-10T11:27:32.999Z,31.42
2019-06-10T11:28:32.172Z,31.46
2019-06-10T11:29:32.705Z,31.35
2019-06-10T11:30:32.473Z,31.40
2019-06-10T11:31:32.699Z,31.52
2019-06-10T11:32:32.617Z,31.59
2019-06-10T11:33:32.664Z,31.56
2019-06-10T11:34:30.331Z,31.38
2019-06-10T11:35:30.309Z,31.09
2019-06-10T11:36:30.302Z,31.15
2019-06-10T11:37:30.292Z,31.20
2019-06-10T11:38:32.602Z,31.04
2019-06-10T11:39:30.294Z,30.93
2019-06-10T11:40:30.269Z,30.48
2019-06-10T11:41:32.413Z,30.45
2019-06-10T11:42:30.247Z,30.46
2019-06-10T11:43:32.883Z,30.44
2019-06-10T11:44:30.241Z,30.46
2019-06-10T11:45:32.693Z,30.32
2019-06-10T11:46:32.348Z,30.44
2019-06-10T11:47:30.337Z,30.60
2019-06-10T11:48:32.568Z,30.60
2019-06-10T11:49:30.200Z,30.73
2019-06-10T11:50:30.177Z,30.68
2019-06-10T11:51:30.166Z,30.75
2019-06-10T11:52:32.810Z,30.90
2019-06-10T11:53:30.150Z,30.91
2019-06-10T11:54:32.575Z,31.10
2019-06-10T11:55:30.135Z,31.35
2019-06-10T11:56:30.126Z,31.59
2019-06-10T11:57:32.364Z,31.42
2019-06-10T11:58:30.103Z,31.25
2019-06-10T11:59:32.598Z,31.28
2019-06-10T12:00:32.898Z,31.31
2019-06-10T12:01:30.937Z,31.12
2019-06-10T12:02:30.069Z,31.12
2019-06-10T12:03:30.076Z,31.00
2019-06-10T12:04:30.073Z,31.19
2019-06-10T12:05:32.468Z,31.16
2019-06-10T12:06:30.042Z,31.23
2019-06-10T12:07:30.041Z,31.25
2019-06-10T12:08:32.680Z,31.35
2019-06-10T12:09:30.029Z,31.27
2019-06-10T12:10:32.803Z,31.35
2019-06-10T12:11:29.994Z,31.27
2019-06-10T12:12:33.437Z,31.31
2019-06-10T12:13:29.978Z,31.38
2019-06-10T12:14:32.827Z,31.34
2019-06-10T12:15:32.258Z,31.37
2019-06-10T12:17:15.590Z,31.37
2019-06-10T12:17:42.977Z,31.40
2019-06-10T12:18:33.095Z,31.01
2019-06-10T12:19:33.568Z,31.01
2019-06-10T12:20:29.931Z,30.91
2019-06-10T12:21:32.876Z,30.98
2019-06-10T12:22:29.888Z,31.01
2019-06-10T12:23:29.872Z,31.03
2019-06-10T12:24:32.860Z,31.04
2019-06-10T12:25:36.758Z,31.15
2019-06-10T12:26:32.831Z,31.20
2019-06-10T12:27:29.837Z,31.31
2019-06-10T12:28:32.472Z,31.32
2019-06-10T12:29:29.812Z,31.45
2019-06-10T12:30:29.804Z,31.27
2019-06-10T12:31:29.806Z,31.27
2019-06-10T12:32:29.816Z,31.23
2019-06-10T12:33:29.789Z,31.23
2019-06-10T12:34:32.997Z,31.03
2019-06-10T12:35:29.753Z,30.49
2019-06-10T12:36:29.756Z,30.45
2019-06-10T12:37:29.746Z,30.29
2019-06-10T12:38:32.511Z,30.25
2019-06-10T12:39:29.713Z,30.28
2019-06-10T12:40:29.710Z,30.37
2019-06-10T12:41:29.689Z,30.36
2019-06-10T12:42:29.707Z,30.45
2019-06-10T12:43:29.673Z,30.48
2019-06-10T12:44:29.659Z,30.38
2019-06-10T12:45:29.649Z,30.22
2019-06-10T12:46:29.640Z,30.11
2019-06-10T12:47:29.631Z,30.00
2019-06-10T12:48:29.632Z,29.85
2019-06-10T12:49:32.000Z,29.89
2019-06-10T12:50:30.197Z,29.73
2019-06-10T12:51:29.588Z,29.73
2019-06-10T12:52:29.628Z,29.69